SHU565 UHPP-UHSN
Flight info
| Callsign | SHU565 |
|---|---|
| Flight time | 2h 59m |
| Altitude | FL160 |
| Route | SAMIK T577 ABOMA B913 MILFA B933 ANGAR |
| Aircraft | C160/M-S/N |
Departure
| Time | 2026-04-17 13:30 |
|---|---|
| Airport | Yelizovo Airport (UHPP) |
Arrival
| Time | 2026-04-17 16:29 |
|---|---|
| Airport | Nogliki Airport (UHSN) |
| Time | Latitude | Longitude | Altitude | Speed | Heading |
|---|---|---|---|---|---|
| 2026-04-17 13:20 | 53.16898 | 158.42929 | 135 ft | 0 kts | 240° |
| 2026-04-17 13:20 | 53.16894 | 158.42916 | 162 ft | 4 kts | 244° |
| 2026-04-17 13:21 | 53.16892 | 158.42845 | 135 ft | 8 kts | 290° |
| 2026-04-17 13:21 | 53.16943 | 158.42785 | 135 ft | 8 kts | 341° |
| 2026-04-17 13:21 | 53.17011 | 158.42778 | 135 ft | 12 kts | 30° |
| 2026-04-17 13:21 | 53.17065 | 158.42908 | 135 ft | 16 kts | 59° |
| 2026-04-17 13:22 | 53.17127 | 158.43085 | 135 ft | 19 kts | 62° |
| 2026-04-17 13:22 | 53.17200 | 158.43296 | 135 ft | 23 kts | 60° |
| 2026-04-17 13:22 | 53.17271 | 158.43500 | 135 ft | 0 kts | 59° |
| 2026-04-17 13:24 | 53.17282 | 158.43529 | 135 ft | 5 kts | 59° |
| 2026-04-17 13:24 | 53.17309 | 158.43607 | 135 ft | 10 kts | 61° |
| 2026-04-17 13:24 | 53.17354 | 158.43739 | 135 ft | 16 kts | 59° |
| 2026-04-17 13:25 | 53.17416 | 158.43918 | 135 ft | 20 kts | 58° |
| 2026-04-17 13:25 | 53.17481 | 158.44131 | 135 ft | 20 kts | 67° |
| 2026-04-17 13:25 | 53.17516 | 158.44306 | 135 ft | 12 kts | 98° |
| 2026-04-17 13:25 | 53.17439 | 158.44405 | 135 ft | 17 kts | 160° |
| 2026-04-17 13:26 | 53.17316 | 158.44489 | 135 ft | 22 kts | 158° |
| 2026-04-17 13:26 | 53.17164 | 158.44595 | 135 ft | 26 kts | 157° |
| 2026-04-17 13:26 | 53.16986 | 158.44720 | 135 ft | 30 kts | 157° |
| 2026-04-17 13:26 | 53.16784 | 158.44856 | 135 ft | 33 kts | 157° |
| 2026-04-17 13:27 | 53.16565 | 158.45008 | 135 ft | 35 kts | 158° |
| 2026-04-17 13:27 | 53.16331 | 158.45169 | 135 ft | 35 kts | 157° |
| 2026-04-17 13:27 | 53.16172 | 158.45283 | 135 ft | 24 kts | 158° |
| 2026-04-17 13:27 | 53.16070 | 158.45379 | 135 ft | 9 kts | 114° |
| 2026-04-17 13:28 | 53.16082 | 158.45499 | 135 ft | 13 kts | 72° |
| 2026-04-17 13:28 | 53.16141 | 158.45608 | 135 ft | 13 kts | 351° |
| 2026-04-17 13:28 | 53.16157 | 158.45600 | 135 ft | 0 kts | 335° |
| 2026-04-17 13:29 | 53.16182 | 158.45581 | 135 ft | 21 kts | 335° |
| 2026-04-17 13:29 | 53.16512 | 158.45351 | 133 ft | 78 kts | 339° |
| 2026-04-17 13:29 | 53.17138 | 158.44917 | 153 ft | 113 kts | 337° |
| 2026-04-17 13:29 | 53.17913 | 158.44382 | 352 ft | 128 kts | 338° |
| 2026-04-17 13:30 | 53.18706 | 158.43704 | 767 ft | 128 kts | 330° |
| 2026-04-17 13:30 | 53.19519 | 158.43017 | 1122 ft | 137 kts | 337° |
| 2026-04-17 13:30 | 53.20410 | 158.42363 | 1563 ft | 141 kts | 336° |
| 2026-04-17 13:30 | 53.21314 | 158.41679 | 1985 ft | 148 kts | 335° |
| 2026-04-17 13:31 | 53.22305 | 158.40955 | 2284 ft | 162 kts | 335° |
| 2026-04-17 13:31 | 53.23371 | 158.40207 | 2627 ft | 169 kts | 335° |
| 2026-04-17 13:31 | 53.24451 | 158.39285 | 2789 ft | 182 kts | 320° |
| 2026-04-17 13:31 | 53.25062 | 158.37449 | 2933 ft | 190 kts | 276° |
| 2026-04-17 13:32 | 53.24690 | 158.35356 | 3133 ft | 196 kts | 232° |
| 2026-04-17 13:32 | 53.23679 | 158.33822 | 3397 ft | 197 kts | 220° |
| 2026-04-17 13:32 | 53.22625 | 158.32354 | 3670 ft | 198 kts | 222° |
| 2026-04-17 13:32 | 53.21572 | 158.30859 | 3950 ft | 199 kts | 221° |
| 2026-04-17 13:33 | 53.20513 | 158.29375 | 4220 ft | 200 kts | 221° |
| 2026-04-17 13:33 | 53.19442 | 158.27888 | 4488 ft | 201 kts | 221° |
| 2026-04-17 13:33 | 53.18369 | 158.26406 | 4761 ft | 201 kts | 221° |
| 2026-04-17 13:33 | 53.17290 | 158.24921 | 5025 ft | 202 kts | 221° |
| 2026-04-17 13:34 | 53.16275 | 158.23318 | 5271 ft | 201 kts | 231° |
| 2026-04-17 13:34 | 53.15400 | 158.21503 | 5558 ft | 201 kts | 234° |
| 2026-04-17 13:34 | 53.14532 | 158.19679 | 5843 ft | 202 kts | 233° |
| 2026-04-17 13:34 | 53.13654 | 158.17855 | 6098 ft | 202 kts | 233° |
| 2026-04-17 13:35 | 53.12779 | 158.16029 | 6370 ft | 202 kts | 235° |
| 2026-04-17 13:35 | 53.12132 | 158.13981 | 6577 ft | 200 kts | 253° |
| 2026-04-17 13:35 | 53.11833 | 158.11729 | 6803 ft | 200 kts | 261° |
| 2026-04-17 13:35 | 53.11532 | 158.09475 | 7104 ft | 200 kts | 257° |
| 2026-04-17 13:36 | 53.11166 | 158.07245 | 7355 ft | 200 kts | 256° |
| 2026-04-17 13:36 | 53.10817 | 158.05012 | 7605 ft | 200 kts | 257° |
| 2026-04-17 13:36 | 53.10478 | 158.02769 | 7877 ft | 200 kts | 257° |
| 2026-04-17 13:36 | 53.10131 | 158.00538 | 8150 ft | 200 kts | 257° |
| 2026-04-17 13:37 | 53.09779 | 157.98300 | 8425 ft | 200 kts | 257° |
| 2026-04-17 13:37 | 53.09432 | 157.96059 | 8701 ft | 201 kts | 257° |
| 2026-04-17 13:37 | 53.09084 | 157.93811 | 8950 ft | 201 kts | 256° |
| 2026-04-17 13:37 | 53.08731 | 157.91562 | 9221 ft | 201 kts | 256° |
| 2026-04-17 13:38 | 53.08382 | 157.89316 | 9482 ft | 201 kts | 257° |
| 2026-04-17 13:38 | 53.08032 | 157.87071 | 9740 ft | 201 kts | 256° |
| 2026-04-17 13:38 | 53.07678 | 157.84820 | 9986 ft | 202 kts | 256° |
| 2026-04-17 13:38 | 53.07325 | 157.82569 | 10218 ft | 202 kts | 256° |
| 2026-04-17 13:39 | 53.06972 | 157.80320 | 10440 ft | 202 kts | 256° |
| 2026-04-17 13:39 | 53.06618 | 157.78065 | 10668 ft | 202 kts | 256° |
| 2026-04-17 13:39 | 53.06263 | 157.75805 | 10894 ft | 202 kts | 256° |
| 2026-04-17 13:39 | 53.05908 | 157.73553 | 11146 ft | 202 kts | 256° |
| 2026-04-17 13:40 | 53.05551 | 157.71299 | 11356 ft | 202 kts | 256° |
| 2026-04-17 13:40 | 53.05193 | 157.69034 | 11596 ft | 203 kts | 256° |
| 2026-04-17 13:40 | 53.04837 | 157.66772 | 11830 ft | 203 kts | 256° |
| 2026-04-17 13:40 | 53.04479 | 157.64511 | 12073 ft | 203 kts | 256° |
| 2026-04-17 13:41 | 53.04118 | 157.62247 | 12311 ft | 203 kts | 256° |
| 2026-04-17 13:41 | 53.03899 | 157.59947 | 12501 ft | 203 kts | 272° |
| 2026-04-17 13:41 | 53.04118 | 157.57643 | 12720 ft | 202 kts | 282° |
| 2026-04-17 13:41 | 53.04382 | 157.55352 | 12969 ft | 202 kts | 279° |
| 2026-04-17 13:42 | 53.04567 | 157.53041 | 13191 ft | 203 kts | 277° |
| 2026-04-17 13:42 | 53.04762 | 157.50686 | 13301 ft | 208 kts | 278° |
| 2026-04-17 13:42 | 53.04979 | 157.48299 | 13438 ft | 211 kts | 278° |
| 2026-04-17 13:42 | 53.05188 | 157.45884 | 13592 ft | 212 kts | 278° |
| 2026-04-17 13:43 | 53.05395 | 157.43454 | 13736 ft | 213 kts | 278° |
| 2026-04-17 13:43 | 53.05606 | 157.41013 | 13868 ft | 214 kts | 278° |
| 2026-04-17 13:43 | 53.05817 | 157.38568 | 14010 ft | 214 kts | 278° |
| 2026-04-17 13:43 | 53.06028 | 157.36118 | 14157 ft | 215 kts | 278° |
| 2026-04-17 13:44 | 53.06238 | 157.33666 | 14273 ft | 215 kts | 278° |
| 2026-04-17 13:44 | 53.06446 | 157.31217 | 14404 ft | 215 kts | 278° |
| 2026-04-17 13:44 | 53.06657 | 157.28759 | 14526 ft | 215 kts | 278° |
| 2026-04-17 13:44 | 53.06863 | 157.26310 | 14655 ft | 215 kts | 278° |
| 2026-04-17 13:45 | 53.07070 | 157.23862 | 14791 ft | 214 kts | 278° |
| 2026-04-17 13:45 | 53.07280 | 157.21413 | 14914 ft | 214 kts | 279° |
| 2026-04-17 13:45 | 53.07486 | 157.18965 | 15046 ft | 214 kts | 278° |
| 2026-04-17 13:45 | 53.07690 | 157.16513 | 15173 ft | 214 kts | 279° |
| 2026-04-17 13:46 | 53.07897 | 157.14068 | 15298 ft | 214 kts | 279° |
| 2026-04-17 13:46 | 53.08102 | 157.11625 | 15431 ft | 214 kts | 278° |
| 2026-04-17 13:46 | 53.08305 | 157.09176 | 15557 ft | 214 kts | 279° |
| 2026-04-17 13:46 | 53.08508 | 157.06733 | 15670 ft | 214 kts | 279° |
| 2026-04-17 13:47 | 53.08713 | 157.04293 | 15802 ft | 214 kts | 279° |
| 2026-04-17 13:47 | 53.08916 | 157.01845 | 15929 ft | 214 kts | 279° |
| 2026-04-17 13:47 | 53.09117 | 156.99395 | 15983 ft | 217 kts | 279° |
| 2026-04-17 13:47 | 53.09325 | 156.96883 | 15987 ft | 221 kts | 279° |
| 2026-04-17 13:48 | 53.09534 | 156.94339 | 15987 ft | 224 kts | 279° |
| 2026-04-17 13:48 | 53.09745 | 156.91767 | 15991 ft | 226 kts | 279° |
| 2026-04-17 13:48 | 53.09958 | 156.89180 | 15999 ft | 227 kts | 279° |
| 2026-04-17 13:48 | 53.10168 | 156.86575 | 15993 ft | 228 kts | 279° |
| 2026-04-17 13:49 | 53.10380 | 156.83960 | 15996 ft | 229 kts | 279° |
| 2026-04-17 13:49 | 53.10594 | 156.81342 | 15996 ft | 229 kts | 279° |
| 2026-04-17 13:49 | 53.10806 | 156.78716 | 15996 ft | 230 kts | 279° |
| 2026-04-17 13:49 | 53.11018 | 156.76081 | 15999 ft | 230 kts | 279° |
| 2026-04-17 13:50 | 53.11230 | 156.73453 | 15996 ft | 230 kts | 279° |
| 2026-04-17 13:50 | 53.11441 | 156.70816 | 16002 ft | 230 kts | 279° |
| 2026-04-17 13:50 | 53.11651 | 156.68179 | 15996 ft | 231 kts | 279° |
| 2026-04-17 13:50 | 53.11862 | 156.65537 | 15995 ft | 231 kts | 279° |
| 2026-04-17 13:51 | 53.12072 | 156.62896 | 16001 ft | 231 kts | 279° |
| 2026-04-17 13:51 | 53.12282 | 156.60255 | 15996 ft | 231 kts | 279° |
| 2026-04-17 13:51 | 53.12490 | 156.57612 | 15998 ft | 231 kts | 278° |
| 2026-04-17 13:51 | 53.12699 | 156.54973 | 15997 ft | 231 kts | 279° |
| 2026-04-17 13:52 | 53.12906 | 156.52326 | 15999 ft | 231 kts | 278° |
| 2026-04-17 13:52 | 53.13113 | 156.49685 | 15998 ft | 231 kts | 278° |
| 2026-04-17 13:52 | 53.13320 | 156.47043 | 15997 ft | 231 kts | 278° |
| 2026-04-17 13:52 | 53.13525 | 156.44404 | 15995 ft | 230 kts | 278° |
| 2026-04-17 13:53 | 53.13730 | 156.41759 | 15996 ft | 230 kts | 278° |
| 2026-04-17 13:53 | 53.13936 | 156.39123 | 15999 ft | 230 kts | 278° |
| 2026-04-17 13:53 | 53.14139 | 156.36477 | 16000 ft | 231 kts | 278° |
| 2026-04-17 13:53 | 53.14342 | 156.33834 | 15999 ft | 231 kts | 278° |
| 2026-04-17 13:54 | 53.14747 | 156.28553 | 16000 ft | 231 kts | 278° |
| 2026-04-17 13:54 | 53.14949 | 156.25907 | 16001 ft | 230 kts | 278° |
| 2026-04-17 13:55 | 53.15349 | 156.20628 | 15996 ft | 230 kts | 278° |
| 2026-04-17 13:55 | 53.15549 | 156.17986 | 16000 ft | 230 kts | 278° |
| 2026-04-17 13:55 | 53.15947 | 156.12704 | 16004 ft | 230 kts | 278° |
| 2026-04-17 13:56 | 53.16342 | 156.07423 | 16007 ft | 230 kts | 278° |
| 2026-04-17 13:56 | 53.16539 | 156.04785 | 16007 ft | 230 kts | 278° |
| 2026-04-17 13:56 | 53.16734 | 156.02146 | 16004 ft | 230 kts | 278° |
| 2026-04-17 13:57 | 53.16929 | 155.99509 | 16004 ft | 230 kts | 278° |
| 2026-04-17 13:57 | 53.17124 | 155.96868 | 16009 ft | 230 kts | 278° |
| 2026-04-17 13:57 | 53.17512 | 155.91593 | 16005 ft | 230 kts | 278° |
| 2026-04-17 13:58 | 53.17704 | 155.88958 | 16009 ft | 230 kts | 278° |
| 2026-04-17 13:58 | 53.18088 | 155.83681 | 16007 ft | 230 kts | 278° |
| 2026-04-17 13:58 | 53.18279 | 155.81040 | 16007 ft | 230 kts | 278° |
| 2026-04-17 13:59 | 53.18659 | 155.75769 | 16007 ft | 230 kts | 278° |
| 2026-04-17 13:59 | 53.18848 | 155.73132 | 16009 ft | 230 kts | 278° |
| 2026-04-17 13:59 | 53.19036 | 155.70493 | 16007 ft | 229 kts | 278° |
| 2026-04-17 14:00 | 53.19225 | 155.67859 | 16007 ft | 229 kts | 278° |
| 2026-04-17 14:00 | 53.19412 | 155.65221 | 16013 ft | 229 kts | 278° |
| 2026-04-17 14:00 | 53.19598 | 155.62589 | 16012 ft | 229 kts | 278° |
| 2026-04-17 14:00 | 53.19784 | 155.59960 | 16013 ft | 229 kts | 278° |
| 2026-04-17 14:01 | 53.19969 | 155.57326 | 16014 ft | 229 kts | 278° |
| 2026-04-17 14:01 | 53.20154 | 155.54694 | 16021 ft | 229 kts | 278° |
| 2026-04-17 14:01 | 53.20338 | 155.52063 | 16024 ft | 229 kts | 278° |
| 2026-04-17 14:01 | 53.20521 | 155.49427 | 16023 ft | 230 kts | 278° |
| 2026-04-17 14:02 | 53.20706 | 155.46778 | 16020 ft | 230 kts | 278° |
| 2026-04-17 14:02 | 53.20889 | 155.44131 | 16020 ft | 231 kts | 278° |
| 2026-04-17 14:02 | 53.21071 | 155.41475 | 16021 ft | 231 kts | 278° |
| 2026-04-17 14:02 | 53.21255 | 155.38819 | 16022 ft | 231 kts | 278° |
| 2026-04-17 14:03 | 53.21437 | 155.36162 | 16023 ft | 231 kts | 278° |
| 2026-04-17 14:03 | 53.21618 | 155.33504 | 16021 ft | 231 kts | 278° |
| 2026-04-17 14:03 | 53.21799 | 155.30845 | 16022 ft | 231 kts | 278° |
| 2026-04-17 14:03 | 53.21981 | 155.28177 | 16029 ft | 231 kts | 278° |
| 2026-04-17 14:04 | 53.22160 | 155.25523 | 16023 ft | 231 kts | 278° |
| 2026-04-17 14:04 | 53.22340 | 155.22856 | 16027 ft | 231 kts | 278° |
| 2026-04-17 14:04 | 53.22518 | 155.20197 | 16025 ft | 231 kts | 278° |
| 2026-04-17 14:04 | 53.22697 | 155.17535 | 16024 ft | 231 kts | 278° |
| 2026-04-17 14:05 | 53.22874 | 155.14878 | 16027 ft | 231 kts | 278° |
| 2026-04-17 14:05 | 53.23051 | 155.12216 | 16026 ft | 231 kts | 278° |
| 2026-04-17 14:05 | 53.23227 | 155.09556 | 16032 ft | 231 kts | 278° |
| 2026-04-17 14:05 | 53.23402 | 155.06901 | 16037 ft | 231 kts | 278° |
| 2026-04-17 14:06 | 53.23578 | 155.04236 | 16038 ft | 231 kts | 278° |
| 2026-04-17 14:06 | 53.23753 | 155.01573 | 16037 ft | 231 kts | 278° |
| 2026-04-17 14:06 | 53.23926 | 154.98914 | 16038 ft | 231 kts | 278° |
| 2026-04-17 14:06 | 53.24100 | 154.96249 | 16036 ft | 231 kts | 278° |
| 2026-04-17 14:07 | 53.24273 | 154.93584 | 16039 ft | 231 kts | 278° |
| 2026-04-17 14:07 | 53.24445 | 154.90919 | 16038 ft | 231 kts | 278° |
| 2026-04-17 14:07 | 53.24617 | 154.88254 | 16036 ft | 231 kts | 278° |
| 2026-04-17 14:07 | 53.24788 | 154.85587 | 16038 ft | 231 kts | 278° |
| 2026-04-17 14:08 | 53.24958 | 154.82919 | 16040 ft | 231 kts | 278° |
| 2026-04-17 14:08 | 53.25129 | 154.80255 | 16039 ft | 231 kts | 278° |
| 2026-04-17 14:08 | 53.25298 | 154.77594 | 16040 ft | 231 kts | 278° |
| 2026-04-17 14:08 | 53.25466 | 154.74930 | 16037 ft | 231 kts | 278° |
| 2026-04-17 14:09 | 53.25634 | 154.72267 | 16038 ft | 231 kts | 278° |
| 2026-04-17 14:09 | 53.25802 | 154.69604 | 16040 ft | 231 kts | 278° |
| 2026-04-17 14:09 | 53.25968 | 154.66941 | 16041 ft | 231 kts | 278° |
| 2026-04-17 14:09 | 53.26134 | 154.64276 | 16042 ft | 231 kts | 278° |
| 2026-04-17 14:10 | 53.26300 | 154.61612 | 16045 ft | 231 kts | 278° |
| 2026-04-17 14:10 | 53.26465 | 154.58952 | 16043 ft | 231 kts | 278° |
| 2026-04-17 14:10 | 53.26630 | 154.56284 | 16050 ft | 231 kts | 277° |
| 2026-04-17 14:10 | 53.26793 | 154.53627 | 16048 ft | 231 kts | 277° |
| 2026-04-17 14:11 | 53.26956 | 154.50963 | 16046 ft | 231 kts | 277° |
| 2026-04-17 14:11 | 53.27119 | 154.48301 | 16049 ft | 231 kts | 277° |
| 2026-04-17 14:11 | 53.27280 | 154.45638 | 16048 ft | 231 kts | 277° |
| 2026-04-17 14:11 | 53.27442 | 154.42975 | 16048 ft | 231 kts | 277° |
| 2026-04-17 14:12 | 53.27603 | 154.40306 | 16049 ft | 231 kts | 277° |
| 2026-04-17 14:12 | 53.27763 | 154.37643 | 16047 ft | 231 kts | 277° |
| 2026-04-17 14:12 | 53.27922 | 154.34985 | 16049 ft | 231 kts | 277° |
| 2026-04-17 14:13 | 53.28239 | 154.29654 | 16049 ft | 231 kts | 277° |
| 2026-04-17 14:13 | 53.28397 | 154.26992 | 16052 ft | 231 kts | 277° |
| 2026-04-17 14:13 | 53.28554 | 154.24330 | 16056 ft | 231 kts | 277° |
| 2026-04-17 14:13 | 53.28711 | 154.21665 | 16056 ft | 231 kts | 277° |
| 2026-04-17 14:14 | 53.28866 | 154.19005 | 16058 ft | 231 kts | 277° |
| 2026-04-17 14:14 | 53.29021 | 154.16339 | 16059 ft | 231 kts | 277° |
| 2026-04-17 14:14 | 53.29177 | 154.13675 | 16059 ft | 231 kts | 277° |
| 2026-04-17 14:14 | 53.29330 | 154.11010 | 16057 ft | 231 kts | 277° |
| 2026-04-17 14:15 | 53.29484 | 154.08344 | 16059 ft | 231 kts | 277° |
| 2026-04-17 14:15 | 53.29637 | 154.05683 | 16059 ft | 231 kts | 277° |
| 2026-04-17 14:15 | 53.29788 | 154.03025 | 16057 ft | 231 kts | 277° |
| 2026-04-17 14:15 | 53.29941 | 154.00351 | 16055 ft | 231 kts | 277° |
| 2026-04-17 14:16 | 53.30093 | 153.97689 | 16059 ft | 231 kts | 277° |
| 2026-04-17 14:16 | 53.30242 | 153.95022 | 16063 ft | 231 kts | 277° |
| 2026-04-17 14:16 | 53.30392 | 153.92361 | 16060 ft | 231 kts | 277° |
| 2026-04-17 14:16 | 53.30542 | 153.89696 | 16061 ft | 231 kts | 277° |
| 2026-04-17 14:17 | 53.30690 | 153.87028 | 16062 ft | 231 kts | 277° |
| 2026-04-17 14:17 | 53.30838 | 153.84366 | 16063 ft | 231 kts | 277° |
| 2026-04-17 14:17 | 53.30986 | 153.81698 | 16063 ft | 231 kts | 277° |
| 2026-04-17 14:17 | 53.31133 | 153.79033 | 16061 ft | 231 kts | 277° |
| 2026-04-17 14:18 | 53.31279 | 153.76371 | 16065 ft | 231 kts | 277° |
| 2026-04-17 14:18 | 53.31425 | 153.73707 | 16070 ft | 231 kts | 277° |
| 2026-04-17 14:18 | 53.31570 | 153.71042 | 16071 ft | 231 kts | 277° |
| 2026-04-17 14:18 | 53.31714 | 153.68378 | 16069 ft | 231 kts | 277° |
| 2026-04-17 14:19 | 53.31858 | 153.65715 | 16070 ft | 230 kts | 277° |
| 2026-04-17 14:19 | 53.32001 | 153.63051 | 16069 ft | 230 kts | 277° |
| 2026-04-17 14:19 | 53.32144 | 153.60386 | 16068 ft | 230 kts | 277° |
| 2026-04-17 14:19 | 53.32286 | 153.57723 | 16066 ft | 230 kts | 277° |
| 2026-04-17 14:20 | 53.32427 | 153.55059 | 16075 ft | 230 kts | 277° |
| 2026-04-17 14:20 | 53.32568 | 153.52398 | 16073 ft | 230 kts | 277° |
| 2026-04-17 14:20 | 53.32709 | 153.49735 | 16074 ft | 230 kts | 277° |
| 2026-04-17 14:20 | 53.32847 | 153.47073 | 16074 ft | 230 kts | 277° |
| 2026-04-17 14:21 | 53.32986 | 153.44411 | 16077 ft | 230 kts | 276° |
| 2026-04-17 14:21 | 53.33125 | 153.41747 | 16075 ft | 230 kts | 276° |
| 2026-04-17 14:21 | 53.33262 | 153.39086 | 16075 ft | 230 kts | 276° |
| 2026-04-17 14:21 | 53.33399 | 153.36427 | 16079 ft | 230 kts | 276° |
| 2026-04-17 14:22 | 53.33536 | 153.33761 | 16079 ft | 230 kts | 276° |
| 2026-04-17 14:22 | 53.33672 | 153.31101 | 16079 ft | 230 kts | 276° |
| 2026-04-17 14:22 | 53.33808 | 153.28438 | 16078 ft | 230 kts | 276° |
| 2026-04-17 14:22 | 53.33941 | 153.25776 | 16076 ft | 230 kts | 276° |
| 2026-04-17 14:23 | 53.34076 | 153.23112 | 16079 ft | 230 kts | 276° |
| 2026-04-17 14:23 | 53.34210 | 153.20451 | 16079 ft | 230 kts | 276° |
| 2026-04-17 14:23 | 53.34342 | 153.17787 | 16080 ft | 230 kts | 276° |
| 2026-04-17 14:23 | 53.34475 | 153.15122 | 16080 ft | 230 kts | 276° |
| 2026-04-17 14:24 | 53.34606 | 153.12467 | 16080 ft | 230 kts | 276° |
| 2026-04-17 14:24 | 53.34737 | 153.09800 | 16083 ft | 230 kts | 276° |
| 2026-04-17 14:24 | 53.34868 | 153.07133 | 16081 ft | 230 kts | 276° |
| 2026-04-17 14:24 | 53.34998 | 153.04472 | 16081 ft | 230 kts | 276° |
| 2026-04-17 14:25 | 53.35127 | 153.01811 | 16086 ft | 230 kts | 276° |
| 2026-04-17 14:25 | 53.35256 | 152.99150 | 16085 ft | 230 kts | 276° |
| 2026-04-17 14:25 | 53.35384 | 152.96484 | 16083 ft | 230 kts | 276° |
| 2026-04-17 14:25 | 53.35511 | 152.93822 | 16085 ft | 230 kts | 276° |
| 2026-04-17 14:26 | 53.35639 | 152.91163 | 16084 ft | 230 kts | 276° |
| 2026-04-17 14:26 | 53.35765 | 152.88501 | 16087 ft | 230 kts | 276° |
| 2026-04-17 14:26 | 53.35891 | 152.85841 | 16090 ft | 230 kts | 276° |
| 2026-04-17 14:26 | 53.36015 | 152.83183 | 16088 ft | 230 kts | 276° |
| 2026-04-17 14:27 | 53.36139 | 152.80523 | 16089 ft | 230 kts | 276° |
| 2026-04-17 14:27 | 53.36264 | 152.77863 | 16087 ft | 230 kts | 276° |
| 2026-04-17 14:27 | 53.36387 | 152.75200 | 16087 ft | 230 kts | 276° |
| 2026-04-17 14:27 | 53.36509 | 152.72548 | 16087 ft | 229 kts | 276° |
| 2026-04-17 14:28 | 53.36632 | 152.69884 | 16091 ft | 229 kts | 276° |
| 2026-04-17 14:28 | 53.36752 | 152.67230 | 16091 ft | 229 kts | 276° |
| 2026-04-17 14:28 | 53.36872 | 152.64574 | 16093 ft | 229 kts | 276° |
| 2026-04-17 14:28 | 53.36994 | 152.61911 | 16089 ft | 229 kts | 276° |
| 2026-04-17 14:29 | 53.37113 | 152.59255 | 16091 ft | 229 kts | 276° |
| 2026-04-17 14:29 | 53.37231 | 152.56597 | 16090 ft | 229 kts | 276° |
| 2026-04-17 14:29 | 53.37350 | 152.53942 | 16093 ft | 229 kts | 276° |
| 2026-04-17 14:29 | 53.37467 | 152.51285 | 16094 ft | 229 kts | 276° |
| 2026-04-17 14:30 | 53.37584 | 152.48630 | 16094 ft | 229 kts | 276° |
| 2026-04-17 14:30 | 53.37702 | 152.45974 | 16089 ft | 229 kts | 276° |
| 2026-04-17 14:30 | 53.37817 | 152.43321 | 16090 ft | 229 kts | 276° |
| 2026-04-17 14:30 | 53.37931 | 152.40662 | 16095 ft | 229 kts | 276° |
| 2026-04-17 14:31 | 53.38047 | 152.38009 | 16094 ft | 229 kts | 276° |
| 2026-04-17 14:31 | 53.38161 | 152.35357 | 16098 ft | 229 kts | 276° |
| 2026-04-17 14:31 | 53.38273 | 152.32705 | 16098 ft | 229 kts | 276° |
| 2026-04-17 14:31 | 53.38387 | 152.30050 | 16095 ft | 229 kts | 276° |
| 2026-04-17 14:32 | 53.38499 | 152.27394 | 16098 ft | 229 kts | 276° |
| 2026-04-17 14:32 | 53.38610 | 152.24739 | 16097 ft | 229 kts | 276° |
| 2026-04-17 14:32 | 53.38722 | 152.22088 | 16099 ft | 229 kts | 276° |
| 2026-04-17 14:32 | 53.38832 | 152.19439 | 16099 ft | 229 kts | 276° |
| 2026-04-17 14:33 | 53.38941 | 152.16785 | 16099 ft | 229 kts | 276° |
| 2026-04-17 14:33 | 53.39051 | 152.14132 | 16099 ft | 229 kts | 276° |
| 2026-04-17 14:33 | 53.39159 | 152.11479 | 16099 ft | 229 kts | 276° |
| 2026-04-17 14:33 | 53.39267 | 152.08827 | 16097 ft | 229 kts | 276° |
| 2026-04-17 14:34 | 53.39375 | 152.06174 | 16098 ft | 229 kts | 276° |
| 2026-04-17 14:34 | 53.39480 | 152.03526 | 16097 ft | 228 kts | 276° |
| 2026-04-17 14:34 | 53.39587 | 152.00881 | 16107 ft | 228 kts | 276° |
| 2026-04-17 14:34 | 53.39693 | 151.98229 | 16102 ft | 228 kts | 276° |
| 2026-04-17 14:35 | 53.39797 | 151.95578 | 16101 ft | 228 kts | 276° |
| 2026-04-17 14:35 | 53.39902 | 151.92931 | 16101 ft | 228 kts | 276° |
| 2026-04-17 14:35 | 53.40006 | 151.90282 | 16105 ft | 228 kts | 276° |
| 2026-04-17 14:35 | 53.40108 | 151.87629 | 16105 ft | 228 kts | 276° |
| 2026-04-17 14:36 | 53.40211 | 151.84980 | 16107 ft | 228 kts | 276° |
| 2026-04-17 14:36 | 53.40314 | 151.82329 | 16106 ft | 228 kts | 276° |
| 2026-04-17 14:36 | 53.40414 | 151.79680 | 16105 ft | 228 kts | 276° |
| 2026-04-17 14:36 | 53.40515 | 151.77034 | 16103 ft | 228 kts | 276° |
| 2026-04-17 14:37 | 53.40616 | 151.74384 | 16106 ft | 228 kts | 276° |
| 2026-04-17 14:37 | 53.40715 | 151.71733 | 16103 ft | 228 kts | 276° |
| 2026-04-17 14:37 | 53.40815 | 151.69079 | 16101 ft | 228 kts | 276° |
| 2026-04-17 14:37 | 53.40912 | 151.66431 | 16109 ft | 228 kts | 276° |
| 2026-04-17 14:38 | 53.41010 | 151.63780 | 16103 ft | 228 kts | 276° |
| 2026-04-17 14:38 | 53.41107 | 151.61129 | 16103 ft | 228 kts | 275° |
| 2026-04-17 14:38 | 53.41204 | 151.58483 | 16103 ft | 228 kts | 275° |
| 2026-04-17 14:38 | 53.41300 | 151.55834 | 16112 ft | 228 kts | 275° |
| 2026-04-17 14:39 | 53.41396 | 151.53177 | 16105 ft | 228 kts | 275° |
| 2026-04-17 14:39 | 53.41490 | 151.50528 | 16106 ft | 228 kts | 275° |
| 2026-04-17 14:39 | 53.41585 | 151.47874 | 16110 ft | 228 kts | 275° |
| 2026-04-17 14:39 | 53.41679 | 151.45223 | 16102 ft | 228 kts | 275° |
| 2026-04-17 14:40 | 53.41772 | 151.42575 | 16105 ft | 228 kts | 275° |
| 2026-04-17 14:40 | 53.41864 | 151.39925 | 16106 ft | 228 kts | 275° |
| 2026-04-17 14:40 | 53.41956 | 151.37272 | 16104 ft | 228 kts | 275° |
| 2026-04-17 14:40 | 53.42047 | 151.34628 | 16107 ft | 228 kts | 275° |
| 2026-04-17 14:41 | 53.42138 | 151.31976 | 16110 ft | 228 kts | 275° |
| 2026-04-17 14:41 | 53.42228 | 151.29328 | 16109 ft | 228 kts | 275° |
| 2026-04-17 14:41 | 53.42318 | 151.26676 | 16107 ft | 228 kts | 275° |
| 2026-04-17 14:41 | 53.42407 | 151.24026 | 16107 ft | 228 kts | 275° |
| 2026-04-17 14:42 | 53.42495 | 151.21375 | 16110 ft | 228 kts | 275° |
| 2026-04-17 14:42 | 53.42583 | 151.18721 | 16106 ft | 228 kts | 275° |
| 2026-04-17 14:42 | 53.42671 | 151.16065 | 16106 ft | 229 kts | 275° |
| 2026-04-17 14:42 | 53.42757 | 151.13412 | 16103 ft | 229 kts | 275° |
| 2026-04-17 14:43 | 53.42843 | 151.10753 | 16107 ft | 229 kts | 275° |
| 2026-04-17 14:43 | 53.42929 | 151.08098 | 16112 ft | 229 kts | 275° |
| 2026-04-17 14:43 | 53.43014 | 151.05447 | 16110 ft | 229 kts | 275° |
| 2026-04-17 14:43 | 53.43099 | 151.02788 | 16108 ft | 229 kts | 275° |
| 2026-04-17 14:44 | 53.43182 | 151.00133 | 16108 ft | 229 kts | 275° |
| 2026-04-17 14:44 | 53.43265 | 150.97470 | 16109 ft | 229 kts | 275° |
| 2026-04-17 14:44 | 53.43348 | 150.94812 | 16108 ft | 229 kts | 275° |
| 2026-04-17 14:44 | 53.43430 | 150.92156 | 16112 ft | 229 kts | 275° |
| 2026-04-17 14:45 | 53.43512 | 150.89495 | 16108 ft | 229 kts | 275° |
| 2026-04-17 14:45 | 53.43593 | 150.86834 | 16109 ft | 229 kts | 275° |
| 2026-04-17 14:45 | 53.43673 | 150.84172 | 16111 ft | 229 kts | 275° |
| 2026-04-17 14:45 | 53.43753 | 150.81515 | 16117 ft | 229 kts | 275° |
| 2026-04-17 14:46 | 53.43833 | 150.78848 | 16109 ft | 229 kts | 275° |
| 2026-04-17 14:46 | 53.43911 | 150.76188 | 16111 ft | 229 kts | 275° |
| 2026-04-17 14:46 | 53.43989 | 150.73523 | 16109 ft | 229 kts | 275° |
| 2026-04-17 14:46 | 53.44067 | 150.70861 | 16109 ft | 229 kts | 275° |
| 2026-04-17 14:47 | 53.44144 | 150.68198 | 16112 ft | 229 kts | 275° |
| 2026-04-17 14:47 | 53.44221 | 150.65534 | 16113 ft | 229 kts | 275° |
| 2026-04-17 14:47 | 53.44296 | 150.62865 | 16116 ft | 230 kts | 275° |
| 2026-04-17 14:47 | 53.44371 | 150.60195 | 16112 ft | 230 kts | 275° |
| 2026-04-17 14:48 | 53.44447 | 150.57523 | 16111 ft | 230 kts | 275° |
| 2026-04-17 14:48 | 53.44520 | 150.54855 | 16110 ft | 230 kts | 275° |
| 2026-04-17 14:48 | 53.44594 | 150.52190 | 16115 ft | 229 kts | 274° |
| 2026-04-17 14:48 | 53.44666 | 150.49517 | 16114 ft | 229 kts | 275° |
| 2026-04-17 14:49 | 53.44739 | 150.46850 | 16114 ft | 229 kts | 275° |
| 2026-04-17 14:49 | 53.44811 | 150.44184 | 16116 ft | 230 kts | 274° |
| 2026-04-17 14:49 | 53.44882 | 150.41516 | 16115 ft | 230 kts | 274° |
| 2026-04-17 14:49 | 53.44951 | 150.38847 | 16115 ft | 230 kts | 274° |
| 2026-04-17 14:50 | 53.45022 | 150.36176 | 16113 ft | 229 kts | 274° |
| 2026-04-17 14:50 | 53.45091 | 150.33510 | 16114 ft | 229 kts | 274° |
| 2026-04-17 14:50 | 53.45160 | 150.30841 | 16114 ft | 229 kts | 274° |
| 2026-04-17 14:50 | 53.45229 | 150.28170 | 16113 ft | 230 kts | 274° |
| 2026-04-17 14:51 | 53.45296 | 150.25498 | 16112 ft | 230 kts | 274° |
| 2026-04-17 14:51 | 53.45362 | 150.22825 | 16112 ft | 230 kts | 274° |
| 2026-04-17 14:51 | 53.45429 | 150.20159 | 16115 ft | 230 kts | 274° |
| 2026-04-17 14:51 | 53.45495 | 150.17485 | 16117 ft | 230 kts | 274° |
| 2026-04-17 14:52 | 53.45560 | 150.14816 | 16117 ft | 230 kts | 274° |
| 2026-04-17 14:52 | 53.45625 | 150.12145 | 16113 ft | 230 kts | 274° |
| 2026-04-17 14:52 | 53.45689 | 150.09475 | 16113 ft | 230 kts | 274° |
| 2026-04-17 14:52 | 53.45752 | 150.06806 | 16115 ft | 230 kts | 274° |
| 2026-04-17 14:53 | 53.45815 | 150.04131 | 16116 ft | 230 kts | 274° |
| 2026-04-17 14:53 | 53.45877 | 150.01456 | 16114 ft | 230 kts | 274° |
| 2026-04-17 14:53 | 53.45939 | 149.98789 | 16116 ft | 230 kts | 274° |
| 2026-04-17 14:53 | 53.45999 | 149.96111 | 16114 ft | 230 kts | 274° |
| 2026-04-17 14:54 | 53.46061 | 149.93437 | 16116 ft | 230 kts | 274° |
| 2026-04-17 14:54 | 53.46120 | 149.90767 | 16115 ft | 230 kts | 274° |
| 2026-04-17 14:54 | 53.46179 | 149.88099 | 16114 ft | 230 kts | 274° |
| 2026-04-17 14:54 | 53.46238 | 149.85426 | 16116 ft | 230 kts | 274° |
| 2026-04-17 14:55 | 53.46296 | 149.82752 | 16117 ft | 230 kts | 274° |
| 2026-04-17 14:55 | 53.46353 | 149.80081 | 16115 ft | 230 kts | 274° |
| 2026-04-17 14:55 | 53.46411 | 149.77407 | 16118 ft | 230 kts | 274° |
| 2026-04-17 14:55 | 53.46467 | 149.74734 | 16117 ft | 230 kts | 274° |
| 2026-04-17 14:56 | 53.46522 | 149.72064 | 16115 ft | 230 kts | 274° |
| 2026-04-17 14:56 | 53.46578 | 149.69395 | 16114 ft | 230 kts | 274° |
| 2026-04-17 14:56 | 53.46631 | 149.66719 | 16114 ft | 229 kts | 274° |
| 2026-04-17 14:56 | 53.46686 | 149.64047 | 16117 ft | 229 kts | 274° |
| 2026-04-17 14:57 | 53.46739 | 149.61381 | 16116 ft | 229 kts | 274° |
| 2026-04-17 14:57 | 53.46791 | 149.58707 | 16117 ft | 229 kts | 274° |
| 2026-04-17 14:57 | 53.46843 | 149.56042 | 16114 ft | 229 kts | 274° |
| 2026-04-17 14:57 | 53.46895 | 149.53374 | 16115 ft | 229 kts | 274° |
| 2026-04-17 14:58 | 53.46945 | 149.50699 | 16115 ft | 229 kts | 274° |
| 2026-04-17 14:58 | 53.46996 | 149.48033 | 16115 ft | 229 kts | 274° |
| 2026-04-17 14:58 | 53.47045 | 149.45361 | 16115 ft | 229 kts | 273° |
| 2026-04-17 14:58 | 53.47094 | 149.42687 | 16116 ft | 229 kts | 273° |
| 2026-04-17 14:59 | 53.47143 | 149.40017 | 16116 ft | 230 kts | 273° |
| 2026-04-17 14:59 | 53.47191 | 149.37345 | 16114 ft | 229 kts | 274° |
| 2026-04-17 14:59 | 53.47238 | 149.34678 | 16114 ft | 229 kts | 273° |
| 2026-04-17 14:59 | 53.47284 | 149.32008 | 16118 ft | 229 kts | 273° |
| 2026-04-17 15:00 | 53.47331 | 149.29343 | 16120 ft | 229 kts | 273° |
| 2026-04-17 15:00 | 53.47376 | 149.26676 | 16118 ft | 229 kts | 273° |
| 2026-04-17 15:00 | 53.47421 | 149.24012 | 16120 ft | 229 kts | 273° |
| 2026-04-17 15:00 | 53.47466 | 149.21343 | 16121 ft | 229 kts | 273° |
| 2026-04-17 15:01 | 53.47508 | 149.18677 | 16120 ft | 229 kts | 273° |
| 2026-04-17 15:01 | 53.47552 | 149.16009 | 16117 ft | 229 kts | 273° |
| 2026-04-17 15:01 | 53.47595 | 149.13340 | 16117 ft | 229 kts | 273° |
| 2026-04-17 15:01 | 53.47636 | 149.10674 | 16116 ft | 229 kts | 273° |
| 2026-04-17 15:02 | 53.47678 | 149.08005 | 16115 ft | 229 kts | 273° |
| 2026-04-17 15:02 | 53.47718 | 149.05338 | 16116 ft | 229 kts | 273° |
| 2026-04-17 15:02 | 53.47758 | 149.02671 | 16116 ft | 229 kts | 273° |
| 2026-04-17 15:02 | 53.47798 | 148.99999 | 16114 ft | 229 kts | 273° |
| 2026-04-17 15:03 | 53.47836 | 148.97336 | 16111 ft | 229 kts | 273° |
| 2026-04-17 15:03 | 53.47875 | 148.94670 | 16114 ft | 229 kts | 273° |
| 2026-04-17 15:03 | 53.47913 | 148.92002 | 16116 ft | 229 kts | 273° |
| 2026-04-17 15:03 | 53.47950 | 148.89331 | 16112 ft | 229 kts | 273° |
| 2026-04-17 15:04 | 53.47986 | 148.86669 | 16116 ft | 229 kts | 273° |
| 2026-04-17 15:04 | 53.48022 | 148.84003 | 16116 ft | 229 kts | 273° |
| 2026-04-17 15:04 | 53.48057 | 148.81343 | 16143 ft | 228 kts | 272° |
| 2026-04-17 15:04 | 53.48092 | 148.78686 | 16118 ft | 228 kts | 273° |
| 2026-04-17 15:05 | 53.48126 | 148.76032 | 16119 ft | 228 kts | 273° |
| 2026-04-17 15:05 | 53.48159 | 148.73379 | 16118 ft | 228 kts | 273° |
| 2026-04-17 15:05 | 53.48192 | 148.70722 | 16122 ft | 228 kts | 272° |
| 2026-04-17 15:05 | 53.48224 | 148.68063 | 16122 ft | 228 kts | 272° |
| 2026-04-17 15:06 | 53.48256 | 148.65406 | 16117 ft | 228 kts | 272° |
| 2026-04-17 15:06 | 53.48287 | 148.62752 | 16120 ft | 228 kts | 272° |
| 2026-04-17 15:06 | 53.48318 | 148.60094 | 16118 ft | 228 kts | 272° |
| 2026-04-17 15:06 | 53.48347 | 148.57441 | 16117 ft | 228 kts | 272° |
| 2026-04-17 15:07 | 53.48377 | 148.54781 | 16117 ft | 228 kts | 272° |
| 2026-04-17 15:07 | 53.48406 | 148.52125 | 16116 ft | 228 kts | 272° |
| 2026-04-17 15:07 | 53.48432 | 148.49467 | 16118 ft | 228 kts | 272° |
| 2026-04-17 15:07 | 53.48461 | 148.46806 | 16116 ft | 228 kts | 272° |
| 2026-04-17 15:08 | 53.48488 | 148.44153 | 16114 ft | 228 kts | 272° |
| 2026-04-17 15:08 | 53.48514 | 148.41497 | 16114 ft | 228 kts | 272° |
| 2026-04-17 15:08 | 53.48541 | 148.38835 | 16113 ft | 228 kts | 272° |
| 2026-04-17 15:08 | 53.48564 | 148.36181 | 16113 ft | 228 kts | 272° |
| 2026-04-17 15:09 | 53.48589 | 148.33525 | 16110 ft | 228 kts | 272° |
| 2026-04-17 15:09 | 53.48614 | 148.30864 | 16110 ft | 228 kts | 272° |
| 2026-04-17 15:09 | 53.48637 | 148.28207 | 16112 ft | 228 kts | 272° |
| 2026-04-17 15:09 | 53.48659 | 148.25551 | 16113 ft | 228 kts | 272° |
| 2026-04-17 15:10 | 53.48682 | 148.22892 | 16112 ft | 228 kts | 272° |
| 2026-04-17 15:10 | 53.48704 | 148.20234 | 16113 ft | 228 kts | 272° |
| 2026-04-17 15:10 | 53.48724 | 148.17573 | 16110 ft | 228 kts | 272° |
| 2026-04-17 15:11 | 53.48765 | 148.12253 | 16109 ft | 228 kts | 272° |
| 2026-04-17 15:11 | 53.48784 | 148.09598 | 16106 ft | 228 kts | 272° |
| 2026-04-17 15:11 | 53.48803 | 148.06937 | 16112 ft | 228 kts | 272° |
| 2026-04-17 15:11 | 53.48821 | 148.04282 | 16110 ft | 228 kts | 272° |
| 2026-04-17 15:12 | 53.48838 | 148.01619 | 16106 ft | 228 kts | 271° |
| 2026-04-17 15:12 | 53.48855 | 147.98956 | 16106 ft | 228 kts | 272° |
| 2026-04-17 15:12 | 53.48872 | 147.96301 | 16105 ft | 228 kts | 272° |
| 2026-04-17 15:12 | 53.48888 | 147.93642 | 16102 ft | 228 kts | 271° |
| 2026-04-17 15:13 | 53.48903 | 147.90977 | 16104 ft | 228 kts | 271° |
| 2026-04-17 15:13 | 53.48917 | 147.88319 | 16105 ft | 228 kts | 271° |
| 2026-04-17 15:13 | 53.48931 | 147.85658 | 16100 ft | 228 kts | 271° |
| 2026-04-17 15:13 | 53.48945 | 147.82996 | 16100 ft | 229 kts | 271° |
| 2026-04-17 15:14 | 53.48957 | 147.80334 | 16100 ft | 229 kts | 271° |
| 2026-04-17 15:14 | 53.48970 | 147.77669 | 16100 ft | 229 kts | 271° |
| 2026-04-17 15:14 | 53.48981 | 147.75008 | 16106 ft | 228 kts | 271° |
| 2026-04-17 15:14 | 53.48992 | 147.72344 | 16104 ft | 228 kts | 271° |
| 2026-04-17 15:15 | 53.49003 | 147.69687 | 16104 ft | 228 kts | 271° |
| 2026-04-17 15:15 | 53.49012 | 147.67022 | 16104 ft | 229 kts | 271° |
| 2026-04-17 15:15 | 53.49022 | 147.64358 | 16104 ft | 229 kts | 271° |
| 2026-04-17 15:15 | 53.49031 | 147.61696 | 16102 ft | 229 kts | 271° |
| 2026-04-17 15:16 | 53.49038 | 147.59034 | 16102 ft | 228 kts | 271° |
| 2026-04-17 15:16 | 53.49046 | 147.56369 | 16103 ft | 229 kts | 271° |
| 2026-04-17 15:16 | 53.49053 | 147.53706 | 16100 ft | 229 kts | 271° |
| 2026-04-17 15:16 | 53.49059 | 147.51043 | 16100 ft | 229 kts | 271° |
| 2026-04-17 15:17 | 53.49065 | 147.48383 | 16100 ft | 229 kts | 271° |
| 2026-04-17 15:17 | 53.49070 | 147.45717 | 16100 ft | 229 kts | 271° |
| 2026-04-17 15:17 | 53.49074 | 147.43054 | 16100 ft | 229 kts | 271° |
| 2026-04-17 15:17 | 53.49079 | 147.40390 | 16104 ft | 229 kts | 271° |
| 2026-04-17 15:18 | 53.49082 | 147.37726 | 16101 ft | 229 kts | 271° |
| 2026-04-17 15:18 | 53.49084 | 147.35063 | 16103 ft | 229 kts | 271° |
| 2026-04-17 15:18 | 53.49087 | 147.32402 | 16098 ft | 229 kts | 271° |
| 2026-04-17 15:18 | 53.49088 | 147.29735 | 16099 ft | 229 kts | 271° |
| 2026-04-17 15:19 | 53.49089 | 147.27077 | 16098 ft | 228 kts | 271° |
| 2026-04-17 15:19 | 53.49089 | 147.24418 | 16100 ft | 228 kts | 271° |
| 2026-04-17 15:19 | 53.49089 | 147.21755 | 16097 ft | 228 kts | 271° |
| 2026-04-17 15:19 | 53.49088 | 147.19097 | 16098 ft | 228 kts | 271° |
| 2026-04-17 15:20 | 53.49087 | 147.16434 | 16099 ft | 229 kts | 271° |
| 2026-04-17 15:20 | 53.49085 | 147.13766 | 16099 ft | 229 kts | 271° |
| 2026-04-17 15:20 | 53.49083 | 147.11105 | 16093 ft | 229 kts | 271° |
| 2026-04-17 15:20 | 53.49079 | 147.08441 | 16095 ft | 228 kts | 271° |
| 2026-04-17 15:21 | 53.49075 | 147.05784 | 16092 ft | 228 kts | 271° |
| 2026-04-17 15:21 | 53.49071 | 147.03119 | 16094 ft | 228 kts | 271° |
| 2026-04-17 15:21 | 53.49066 | 147.00467 | 16089 ft | 228 kts | 271° |
| 2026-04-17 15:21 | 53.49060 | 146.97811 | 16088 ft | 228 kts | 271° |
| 2026-04-17 15:22 | 53.49054 | 146.95158 | 16091 ft | 228 kts | 271° |
| 2026-04-17 15:22 | 53.49049 | 146.92507 | 16089 ft | 227 kts | 271° |
| 2026-04-17 15:22 | 53.49040 | 146.89856 | 16091 ft | 227 kts | 271° |
| 2026-04-17 15:22 | 53.49032 | 146.87209 | 16090 ft | 227 kts | 271° |
| 2026-04-17 15:23 | 53.49025 | 146.84560 | 16088 ft | 227 kts | 271° |
| 2026-04-17 15:23 | 53.49015 | 146.81914 | 16091 ft | 227 kts | 271° |
| 2026-04-17 15:23 | 53.49005 | 146.79271 | 16091 ft | 227 kts | 271° |
| 2026-04-17 15:23 | 53.48996 | 146.76628 | 16090 ft | 227 kts | 271° |
| 2026-04-17 15:24 | 53.48985 | 146.73985 | 16087 ft | 227 kts | 270° |
| 2026-04-17 15:24 | 53.48973 | 146.71341 | 16086 ft | 227 kts | 271° |
| 2026-04-17 15:24 | 53.48961 | 146.68704 | 16089 ft | 227 kts | 270° |
| 2026-04-17 15:24 | 53.48948 | 146.66063 | 16093 ft | 227 kts | 271° |
| 2026-04-17 15:25 | 53.48936 | 146.63422 | 16087 ft | 227 kts | 271° |
| 2026-04-17 15:25 | 53.48922 | 146.60783 | 16088 ft | 227 kts | 271° |
| 2026-04-17 15:25 | 53.48908 | 146.58139 | 16090 ft | 227 kts | 270° |
| 2026-04-17 15:25 | 53.48893 | 146.55501 | 16087 ft | 227 kts | 270° |
| 2026-04-17 15:26 | 53.48877 | 146.52860 | 16082 ft | 226 kts | 270° |
| 2026-04-17 15:26 | 53.48862 | 146.50230 | 16084 ft | 226 kts | 270° |
| 2026-04-17 15:26 | 53.48845 | 146.47589 | 16082 ft | 226 kts | 270° |
| 2026-04-17 15:26 | 53.48828 | 146.44958 | 16083 ft | 226 kts | 270° |
| 2026-04-17 15:27 | 53.48811 | 146.42328 | 16083 ft | 226 kts | 270° |
| 2026-04-17 15:27 | 53.48791 | 146.39699 | 16083 ft | 226 kts | 270° |
| 2026-04-17 15:27 | 53.48774 | 146.37068 | 16083 ft | 226 kts | 270° |
| 2026-04-17 15:27 | 53.48754 | 146.34438 | 16080 ft | 226 kts | 270° |
| 2026-04-17 15:28 | 53.48734 | 146.31811 | 16086 ft | 225 kts | 270° |
| 2026-04-17 15:28 | 53.48714 | 146.29188 | 16084 ft | 225 kts | 270° |
| 2026-04-17 15:28 | 53.48693 | 146.26565 | 16082 ft | 225 kts | 270° |
| 2026-04-17 15:28 | 53.48670 | 146.23941 | 16081 ft | 225 kts | 270° |
| 2026-04-17 15:29 | 53.48649 | 146.21322 | 16075 ft | 225 kts | 270° |
| 2026-04-17 15:29 | 53.48625 | 146.18700 | 16080 ft | 225 kts | 270° |
| 2026-04-17 15:29 | 53.48603 | 146.16085 | 16078 ft | 225 kts | 270° |
| 2026-04-17 15:29 | 53.48578 | 146.13465 | 16076 ft | 225 kts | 270° |
| 2026-04-17 15:30 | 53.48554 | 146.10852 | 16076 ft | 224 kts | 270° |
| 2026-04-17 15:30 | 53.48529 | 146.08241 | 16074 ft | 224 kts | 270° |
| 2026-04-17 15:30 | 53.48503 | 146.05630 | 16078 ft | 224 kts | 270° |
| 2026-04-17 15:30 | 53.48478 | 146.03015 | 16073 ft | 224 kts | 270° |
| 2026-04-17 15:31 | 53.48451 | 146.00402 | 16072 ft | 224 kts | 270° |
| 2026-04-17 15:31 | 53.48423 | 145.97794 | 16070 ft | 224 kts | 270° |
| 2026-04-17 15:31 | 53.48396 | 145.95182 | 16076 ft | 224 kts | 270° |
| 2026-04-17 15:31 | 53.48359 | 145.92582 | 16070 ft | 224 kts | 268° |
| 2026-04-17 15:32 | 53.47964 | 145.90061 | 16074 ft | 227 kts | 249° |
| 2026-04-17 15:32 | 53.47216 | 145.87725 | 16071 ft | 228 kts | 245° |
| 2026-04-17 15:32 | 53.46497 | 145.85366 | 16079 ft | 227 kts | 249° |
| 2026-04-17 15:32 | 53.45851 | 145.82961 | 16076 ft | 227 kts | 249° |
| 2026-04-17 15:33 | 53.45179 | 145.80567 | 16077 ft | 227 kts | 248° |
| 2026-04-17 15:33 | 53.44489 | 145.78189 | 16071 ft | 227 kts | 248° |
| 2026-04-17 15:33 | 53.43815 | 145.75806 | 16072 ft | 227 kts | 249° |
| 2026-04-17 15:33 | 53.43140 | 145.73419 | 16063 ft | 227 kts | 248° |
| 2026-04-17 15:34 | 53.42459 | 145.71040 | 16073 ft | 227 kts | 248° |
| 2026-04-17 15:34 | 53.41782 | 145.68662 | 16063 ft | 226 kts | 249° |
| 2026-04-17 15:34 | 53.41104 | 145.66285 | 16073 ft | 226 kts | 248° |
| 2026-04-17 15:34 | 53.40426 | 145.63915 | 16074 ft | 226 kts | 249° |
| 2026-04-17 15:35 | 53.39749 | 145.61547 | 16072 ft | 226 kts | 249° |
| 2026-04-17 15:35 | 53.39073 | 145.59181 | 16068 ft | 226 kts | 249° |
| 2026-04-17 15:35 | 53.38396 | 145.56819 | 16073 ft | 225 kts | 249° |
| 2026-04-17 15:35 | 53.37718 | 145.54460 | 16065 ft | 225 kts | 249° |
| 2026-04-17 15:36 | 53.37042 | 145.52101 | 16068 ft | 225 kts | 249° |
| 2026-04-17 15:36 | 53.36365 | 145.49744 | 16070 ft | 225 kts | 249° |
| 2026-04-17 15:36 | 53.35688 | 145.47392 | 16067 ft | 225 kts | 249° |
| 2026-04-17 15:36 | 53.35011 | 145.45044 | 16067 ft | 224 kts | 249° |
| 2026-04-17 15:37 | 53.34334 | 145.42695 | 16065 ft | 224 kts | 249° |
| 2026-04-17 15:37 | 53.33660 | 145.40353 | 16064 ft | 224 kts | 249° |
| 2026-04-17 15:37 | 53.32983 | 145.38015 | 16061 ft | 224 kts | 249° |
| 2026-04-17 15:37 | 53.32306 | 145.35675 | 16060 ft | 224 kts | 249° |
| 2026-04-17 15:38 | 53.31631 | 145.33337 | 16060 ft | 224 kts | 249° |
| 2026-04-17 15:38 | 53.30954 | 145.31005 | 16060 ft | 223 kts | 249° |
| 2026-04-17 15:38 | 53.30279 | 145.28673 | 16057 ft | 223 kts | 249° |
| 2026-04-17 15:38 | 53.29603 | 145.26342 | 16056 ft | 223 kts | 249° |
| 2026-04-17 15:39 | 53.28928 | 145.24023 | 16057 ft | 223 kts | 249° |
| 2026-04-17 15:39 | 53.28254 | 145.21700 | 16054 ft | 223 kts | 249° |
| 2026-04-17 15:39 | 53.27578 | 145.19380 | 16054 ft | 222 kts | 249° |
| 2026-04-17 15:39 | 53.26900 | 145.17059 | 16053 ft | 222 kts | 249° |
| 2026-04-17 15:40 | 53.26227 | 145.14746 | 16053 ft | 222 kts | 249° |
| 2026-04-17 15:40 | 53.25551 | 145.12434 | 16052 ft | 222 kts | 249° |
| 2026-04-17 15:40 | 53.24877 | 145.10127 | 16050 ft | 222 kts | 249° |
| 2026-04-17 15:40 | 53.24204 | 145.07824 | 16050 ft | 221 kts | 249° |
| 2026-04-17 15:41 | 53.23529 | 145.05521 | 16051 ft | 221 kts | 249° |
| 2026-04-17 15:41 | 53.22856 | 145.03226 | 16048 ft | 221 kts | 249° |
| 2026-04-17 15:41 | 53.22182 | 145.00928 | 16050 ft | 221 kts | 249° |
| 2026-04-17 15:41 | 53.21508 | 144.98634 | 16048 ft | 220 kts | 249° |
| 2026-04-17 15:42 | 53.20835 | 144.96342 | 16046 ft | 220 kts | 249° |
| 2026-04-17 15:42 | 53.20161 | 144.94052 | 16045 ft | 220 kts | 249° |
| 2026-04-17 15:42 | 53.19489 | 144.91768 | 16044 ft | 220 kts | 249° |
| 2026-04-17 15:42 | 53.18815 | 144.89482 | 16044 ft | 220 kts | 249° |
| 2026-04-17 15:43 | 53.18141 | 144.87202 | 16042 ft | 220 kts | 249° |
| 2026-04-17 15:43 | 53.17470 | 144.84925 | 16045 ft | 219 kts | 249° |
| 2026-04-17 15:43 | 53.16795 | 144.82647 | 16043 ft | 219 kts | 249° |
| 2026-04-17 15:43 | 53.16124 | 144.80377 | 16046 ft | 219 kts | 249° |
| 2026-04-17 15:44 | 53.15451 | 144.78106 | 16043 ft | 219 kts | 249° |
| 2026-04-17 15:44 | 53.14779 | 144.75840 | 16041 ft | 219 kts | 249° |
| 2026-04-17 15:44 | 53.14106 | 144.73574 | 16038 ft | 219 kts | 249° |
| 2026-04-17 15:44 | 53.13434 | 144.71312 | 16038 ft | 218 kts | 249° |
| 2026-04-17 15:45 | 53.12763 | 144.69052 | 16039 ft | 218 kts | 249° |
| 2026-04-17 15:45 | 53.12090 | 144.66792 | 16040 ft | 218 kts | 249° |
| 2026-04-17 15:45 | 53.11419 | 144.64539 | 16040 ft | 218 kts | 249° |
| 2026-04-17 15:45 | 53.10745 | 144.62280 | 16040 ft | 218 kts | 249° |
| 2026-04-17 15:46 | 53.10073 | 144.60029 | 16037 ft | 218 kts | 249° |
| 2026-04-17 15:46 | 53.09401 | 144.57782 | 16040 ft | 217 kts | 249° |
| 2026-04-17 15:46 | 53.08730 | 144.55535 | 16037 ft | 217 kts | 249° |
| 2026-04-17 15:46 | 53.08057 | 144.53286 | 16037 ft | 217 kts | 249° |
| 2026-04-17 15:47 | 53.07384 | 144.51041 | 16034 ft | 217 kts | 249° |
| 2026-04-17 15:47 | 53.06713 | 144.48803 | 16034 ft | 217 kts | 249° |
| 2026-04-17 15:47 | 53.06040 | 144.46561 | 16029 ft | 217 kts | 249° |
| 2026-04-17 15:47 | 53.05367 | 144.44324 | 16034 ft | 217 kts | 249° |
| 2026-04-17 15:48 | 53.04697 | 144.42091 | 16032 ft | 217 kts | 249° |
| 2026-04-17 15:48 | 53.04024 | 144.39857 | 16033 ft | 216 kts | 249° |
| 2026-04-17 15:48 | 53.03352 | 144.37629 | 16029 ft | 216 kts | 249° |
| 2026-04-17 15:48 | 53.02679 | 144.35398 | 16033 ft | 216 kts | 249° |
| 2026-04-17 15:49 | 53.02007 | 144.33169 | 16032 ft | 216 kts | 249° |
| 2026-04-17 15:49 | 53.01333 | 144.30940 | 16029 ft | 216 kts | 249° |
| 2026-04-17 15:49 | 53.00659 | 144.28713 | 16028 ft | 216 kts | 249° |
| 2026-04-17 15:49 | 52.99986 | 144.26488 | 16021 ft | 216 kts | 249° |
| 2026-04-17 15:50 | 52.99312 | 144.24265 | 16024 ft | 216 kts | 249° |
| 2026-04-17 15:50 | 52.98639 | 144.22043 | 16029 ft | 216 kts | 249° |
| 2026-04-17 15:50 | 52.97964 | 144.19821 | 16028 ft | 216 kts | 249° |
| 2026-04-17 15:50 | 52.97288 | 144.17597 | 16023 ft | 216 kts | 249° |
| 2026-04-17 15:51 | 52.96613 | 144.15375 | 16024 ft | 216 kts | 249° |
| 2026-04-17 15:51 | 52.95937 | 144.13154 | 16030 ft | 216 kts | 249° |
| 2026-04-17 15:51 | 52.95260 | 144.10935 | 16025 ft | 216 kts | 249° |
| 2026-04-17 15:51 | 52.94584 | 144.08716 | 16027 ft | 216 kts | 249° |
| 2026-04-17 15:52 | 52.93906 | 144.06495 | 16020 ft | 216 kts | 248° |
| 2026-04-17 15:52 | 52.93229 | 144.04278 | 16022 ft | 216 kts | 248° |
| 2026-04-17 15:52 | 52.92551 | 144.02061 | 16025 ft | 216 kts | 248° |
| 2026-04-17 15:52 | 52.91871 | 143.99841 | 16022 ft | 216 kts | 248° |
| 2026-04-17 15:53 | 52.91193 | 143.97628 | 16021 ft | 216 kts | 248° |
| 2026-04-17 15:53 | 52.90513 | 143.95409 | 16023 ft | 216 kts | 248° |
| 2026-04-17 15:53 | 52.89833 | 143.93196 | 16013 ft | 216 kts | 248° |
| 2026-04-17 15:53 | 52.89153 | 143.90983 | 16013 ft | 216 kts | 248° |
| 2026-04-17 15:54 | 52.88473 | 143.88769 | 16020 ft | 216 kts | 248° |
| 2026-04-17 15:54 | 52.87791 | 143.86554 | 16015 ft | 216 kts | 248° |
| 2026-04-17 15:54 | 52.87109 | 143.84343 | 16022 ft | 216 kts | 248° |
| 2026-04-17 15:54 | 52.86428 | 143.82130 | 16014 ft | 216 kts | 248° |
| 2026-04-17 15:55 | 52.85744 | 143.79917 | 16020 ft | 216 kts | 248° |
| 2026-04-17 15:55 | 52.85061 | 143.77706 | 16018 ft | 216 kts | 248° |
| 2026-04-17 15:55 | 52.84378 | 143.75494 | 16015 ft | 216 kts | 248° |
| 2026-04-17 15:55 | 52.83692 | 143.73282 | 16010 ft | 217 kts | 248° |
| 2026-04-17 15:56 | 52.83008 | 143.71072 | 16023 ft | 216 kts | 248° |
| 2026-04-17 15:56 | 52.82323 | 143.68859 | 16019 ft | 216 kts | 248° |
| 2026-04-17 15:56 | 52.81637 | 143.66653 | 16015 ft | 217 kts | 248° |
| 2026-04-17 15:56 | 52.80951 | 143.64442 | 16016 ft | 217 kts | 248° |
| 2026-04-17 15:57 | 52.80263 | 143.62228 | 16015 ft | 217 kts | 248° |
| 2026-04-17 15:57 | 52.79576 | 143.60022 | 16013 ft | 217 kts | 248° |
| 2026-04-17 15:57 | 52.78887 | 143.57811 | 16013 ft | 217 kts | 248° |
| 2026-04-17 15:57 | 52.78198 | 143.55599 | 16012 ft | 217 kts | 248° |
| 2026-04-17 15:58 | 52.77509 | 143.53394 | 16009 ft | 217 kts | 247° |
| 2026-04-17 15:58 | 52.76820 | 143.51184 | 16007 ft | 217 kts | 248° |
| 2026-04-17 15:58 | 52.76128 | 143.48970 | 16009 ft | 217 kts | 247° |
| 2026-04-17 15:58 | 52.75435 | 143.46762 | 16006 ft | 217 kts | 247° |
| 2026-04-17 15:59 | 52.74745 | 143.44554 | 16005 ft | 217 kts | 247° |
| 2026-04-17 15:59 | 52.74052 | 143.42344 | 16008 ft | 217 kts | 247° |
| 2026-04-17 15:59 | 52.73360 | 143.40137 | 16007 ft | 217 kts | 247° |
| 2026-04-17 15:59 | 52.72668 | 143.37931 | 16005 ft | 217 kts | 247° |
| 2026-04-17 16:00 | 52.71973 | 143.35724 | 16005 ft | 217 kts | 247° |
| 2026-04-17 16:00 | 52.71279 | 143.33517 | 16004 ft | 217 kts | 247° |
| 2026-04-17 16:00 | 52.70585 | 143.31312 | 16004 ft | 217 kts | 247° |
| 2026-04-17 16:00 | 52.69888 | 143.29103 | 16000 ft | 217 kts | 247° |
| 2026-04-17 16:01 | 52.69674 | 143.28423 | 16006 ft | 217 kts | 247° |
| 2026-04-17 16:01 | 52.69092 | 143.26578 | 16002 ft | 217 kts | 247° |
| 2026-04-17 16:02 | 52.68396 | 143.24381 | 16005 ft | 217 kts | 247° |
| 2026-04-17 16:02 | 52.67699 | 143.22169 | 16008 ft | 218 kts | 247° |
| 2026-04-17 16:02 | 52.67000 | 143.19962 | 16000 ft | 218 kts | 247° |
| 2026-04-17 16:02 | 52.66302 | 143.17753 | 16004 ft | 218 kts | 247° |
| 2026-04-17 16:03 | 52.65603 | 143.15547 | 16001 ft | 218 kts | 247° |
| 2026-04-17 16:03 | 52.64902 | 143.13343 | 16002 ft | 218 kts | 247° |
| 2026-04-17 16:03 | 52.64202 | 143.11134 | 15999 ft | 218 kts | 247° |
| 2026-04-17 16:03 | 52.63501 | 143.08931 | 16005 ft | 218 kts | 247° |
| 2026-04-17 16:04 | 52.62800 | 143.06726 | 16000 ft | 218 kts | 247° |
| 2026-04-17 16:04 | 52.62079 | 143.04539 | 15995 ft | 219 kts | 243° |
| 2026-04-17 16:04 | 52.60977 | 143.02752 | 16002 ft | 231 kts | 219° |
| 2026-04-17 16:04 | 52.59428 | 143.01882 | 15987 ft | 244 kts | 197° |
| 2026-04-17 16:05 | 52.57685 | 143.02065 | 15674 ft | 260 kts | 175° |
| 2026-04-17 16:05 | 52.55950 | 143.02861 | 15502 ft | 257 kts | 174° |
| 2026-04-17 16:05 | 52.54222 | 143.03326 | 15323 ft | 249 kts | 184° |
| 2026-04-17 16:05 | 52.52535 | 143.03447 | 15012 ft | 236 kts | 187° |
| 2026-04-17 16:06 | 52.50921 | 143.03629 | 14687 ft | 230 kts | 184° |
| 2026-04-17 16:06 | 52.49344 | 143.03907 | 14351 ft | 228 kts | 183° |
| 2026-04-17 16:06 | 52.47764 | 143.04147 | 14021 ft | 229 kts | 184° |
| 2026-04-17 16:06 | 52.46176 | 143.04367 | 13700 ft | 230 kts | 183° |
| 2026-04-17 16:07 | 52.44587 | 143.04604 | 13353 ft | 230 kts | 182° |
| 2026-04-17 16:07 | 52.42999 | 143.04844 | 13012 ft | 230 kts | 182° |
| 2026-04-17 16:07 | 52.41412 | 143.05077 | 12668 ft | 229 kts | 182° |
| 2026-04-17 16:07 | 52.39830 | 143.05315 | 12348 ft | 228 kts | 181° |
| 2026-04-17 16:08 | 52.38254 | 143.05548 | 12032 ft | 228 kts | 181° |
| 2026-04-17 16:08 | 52.36678 | 143.05777 | 11717 ft | 227 kts | 181° |
| 2026-04-17 16:08 | 52.35106 | 143.06012 | 11405 ft | 227 kts | 180° |
| 2026-04-17 16:08 | 52.33540 | 143.06244 | 11098 ft | 226 kts | 180° |
| 2026-04-17 16:09 | 52.31978 | 143.06472 | 10798 ft | 226 kts | 180° |
| 2026-04-17 16:09 | 52.30422 | 143.06703 | 10504 ft | 225 kts | 180° |
| 2026-04-17 16:09 | 52.28866 | 143.06933 | 10211 ft | 224 kts | 179° |
| 2026-04-17 16:09 | 52.27316 | 143.07161 | 9931 ft | 224 kts | 179° |
| 2026-04-17 16:10 | 52.25771 | 143.07387 | 9616 ft | 223 kts | 179° |
| 2026-04-17 16:10 | 52.24231 | 143.07615 | 9304 ft | 222 kts | 179° |
| 2026-04-17 16:10 | 52.22694 | 143.07841 | 8995 ft | 222 kts | 179° |
| 2026-04-17 16:10 | 52.21216 | 143.08059 | 8673 ft | 207 kts | 179° |
| 2026-04-17 16:11 | 52.19811 | 143.08266 | 8328 ft | 200 kts | 179° |
| 2026-04-17 16:11 | 52.18450 | 143.08464 | 7978 ft | 195 kts | 179° |
| 2026-04-17 16:11 | 52.17108 | 143.08659 | 7630 ft | 193 kts | 179° |
| 2026-04-17 16:11 | 52.15776 | 143.08855 | 7296 ft | 191 kts | 178° |
| 2026-04-17 16:12 | 52.14459 | 143.09047 | 6949 ft | 190 kts | 178° |
| 2026-04-17 16:12 | 52.13148 | 143.09237 | 6607 ft | 189 kts | 178° |
| 2026-04-17 16:12 | 52.11842 | 143.09430 | 6268 ft | 188 kts | 177° |
| 2026-04-17 16:12 | 52.10549 | 143.09619 | 5918 ft | 187 kts | 177° |
| 2026-04-17 16:13 | 52.09261 | 143.09807 | 5638 ft | 185 kts | 177° |
| 2026-04-17 16:13 | 52.07974 | 143.09992 | 5414 ft | 187 kts | 177° |
| 2026-04-17 16:13 | 52.06681 | 143.10175 | 5241 ft | 187 kts | 176° |
| 2026-04-17 16:13 | 52.05383 | 143.10362 | 5134 ft | 188 kts | 176° |
| 2026-04-17 16:14 | 52.02780 | 143.10734 | 4921 ft | 188 kts | 176° |
| 2026-04-17 16:14 | 52.01478 | 143.10920 | 4824 ft | 188 kts | 176° |
| 2026-04-17 16:14 | 52.00184 | 143.11104 | 4717 ft | 187 kts | 176° |
| 2026-04-17 16:15 | 51.98891 | 143.11289 | 4605 ft | 187 kts | 176° |
| 2026-04-17 16:15 | 51.97604 | 143.11472 | 4508 ft | 186 kts | 176° |
| 2026-04-17 16:15 | 51.96316 | 143.11654 | 4405 ft | 186 kts | 176° |
| 2026-04-17 16:15 | 51.95032 | 143.11839 | 4306 ft | 185 kts | 176° |
| 2026-04-17 16:16 | 51.93750 | 143.12021 | 4202 ft | 185 kts | 176° |
| 2026-04-17 16:16 | 51.92470 | 143.12202 | 4097 ft | 185 kts | 176° |
| 2026-04-17 16:16 | 51.91189 | 143.12386 | 4005 ft | 185 kts | 176° |
| 2026-04-17 16:16 | 51.89911 | 143.12563 | 3889 ft | 185 kts | 176° |
| 2026-04-17 16:17 | 51.88636 | 143.12748 | 3782 ft | 184 kts | 176° |
| 2026-04-17 16:17 | 51.87364 | 143.12931 | 3682 ft | 184 kts | 176° |
| 2026-04-17 16:17 | 51.86091 | 143.13108 | 3582 ft | 184 kts | 176° |
| 2026-04-17 16:17 | 51.84817 | 143.13285 | 3485 ft | 184 kts | 176° |
| 2026-04-17 16:18 | 51.83545 | 143.13467 | 3391 ft | 184 kts | 176° |
| 2026-04-17 16:18 | 51.82276 | 143.13652 | 3305 ft | 184 kts | 176° |
| 2026-04-17 16:18 | 51.81067 | 143.14254 | 3136 ft | 187 kts | 145° |
| 2026-04-17 16:18 | 51.80388 | 143.16004 | 2961 ft | 190 kts | 99° |
| 2026-04-17 16:19 | 51.80670 | 143.18027 | 2795 ft | 189 kts | 54° |
| 2026-04-17 16:19 | 51.81560 | 143.19543 | 2718 ft | 185 kts | 43° |
| 2026-04-17 16:19 | 51.82470 | 143.20993 | 2621 ft | 184 kts | 44° |
| 2026-04-17 16:19 | 51.83366 | 143.22456 | 2545 ft | 183 kts | 44° |
| 2026-04-17 16:20 | 51.84265 | 143.23906 | 2451 ft | 182 kts | 44° |
| 2026-04-17 16:20 | 51.85162 | 143.25343 | 2361 ft | 182 kts | 44° |
| 2026-04-17 16:20 | 51.86065 | 143.26773 | 2260 ft | 182 kts | 44° |
| 2026-04-17 16:20 | 51.86970 | 143.28189 | 2167 ft | 182 kts | 44° |
| 2026-04-17 16:21 | 51.87881 | 143.29602 | 2074 ft | 181 kts | 44° |
| 2026-04-17 16:21 | 51.88795 | 143.31004 | 1982 ft | 181 kts | 44° |
| 2026-04-17 16:21 | 51.89712 | 143.32396 | 1891 ft | 181 kts | 44° |
| 2026-04-17 16:21 | 51.90638 | 143.33785 | 1805 ft | 181 kts | 44° |
| 2026-04-17 16:22 | 51.91554 | 143.35142 | 1801 ft | 177 kts | 44° |
| 2026-04-17 16:22 | 51.92455 | 143.36473 | 1798 ft | 174 kts | 44° |
| 2026-04-17 16:22 | 51.93355 | 143.37767 | 1801 ft | 173 kts | 40° |
| 2026-04-17 16:22 | 51.94481 | 143.38327 | 1783 ft | 175 kts | 355° |
| 2026-04-17 16:23 | 51.95492 | 143.37362 | 1785 ft | 173 kts | 302° |
| 2026-04-17 16:23 | 51.95675 | 143.35517 | 1793 ft | 169 kts | 251° |
| 2026-04-17 16:23 | 51.95045 | 143.33958 | 1811 ft | 164 kts | 227° |
| 2026-04-17 16:23 | 51.94381 | 143.32630 | 1810 ft | 142 kts | 229° |
| 2026-04-17 16:24 | 51.93806 | 143.31418 | 1802 ft | 133 kts | 229° |
| 2026-04-17 16:24 | 51.93240 | 143.30241 | 1797 ft | 133 kts | 229° |
| 2026-04-17 16:24 | 51.92675 | 143.29068 | 1794 ft | 132 kts | 229° |
| 2026-04-17 16:24 | 51.92111 | 143.27897 | 1802 ft | 132 kts | 229° |
| 2026-04-17 16:25 | 51.91550 | 143.26724 | 1789 ft | 131 kts | 229° |
| 2026-04-17 16:25 | 51.90990 | 143.25557 | 1795 ft | 132 kts | 229° |
| 2026-04-17 16:25 | 51.90424 | 143.24377 | 1796 ft | 133 kts | 229° |
| 2026-04-17 16:25 | 51.89815 | 143.23256 | 1799 ft | 133 kts | 219° |
| 2026-04-17 16:26 | 51.89124 | 143.22246 | 1795 ft | 134 kts | 214° |
| 2026-04-17 16:26 | 51.88301 | 143.21582 | 1809 ft | 132 kts | 202° |
| 2026-04-17 16:26 | 51.87474 | 143.20929 | 1799 ft | 133 kts | 204° |
| 2026-04-17 16:26 | 51.86623 | 143.20267 | 1677 ft | 138 kts | 202° |
| 2026-04-17 16:27 | 51.85758 | 143.19609 | 1505 ft | 137 kts | 202° |
| 2026-04-17 16:27 | 51.84913 | 143.18986 | 1330 ft | 129 kts | 201° |
| 2026-04-17 16:27 | 51.84133 | 143.18411 | 1165 ft | 119 kts | 201° |
| 2026-04-17 16:27 | 51.83391 | 143.17868 | 1006 ft | 115 kts | 201° |
| 2026-04-17 16:28 | 51.82668 | 143.17336 | 861 ft | 114 kts | 201° |
| 2026-04-17 16:28 | 51.81971 | 143.16822 | 778 ft | 108 kts | 201° |
| 2026-04-17 16:28 | 51.81283 | 143.16327 | 645 ft | 110 kts | 201° |
| 2026-04-17 16:28 | 51.80594 | 143.15818 | 509 ft | 107 kts | 202° |
| 2026-04-17 16:29 | 51.79920 | 143.15311 | 360 ft | 107 kts | 201° |
| 2026-04-17 16:29 | 51.79244 | 143.14802 | 168 ft | 108 kts | 202° |
| 2026-04-17 16:29 | 51.78639 | 143.14365 | 142 ft | 77 kts | 205° |
| 2026-04-17 16:29 | 51.78242 | 143.14080 | 139 ft | 36 kts | 206° |
| 2026-04-17 16:30 | 51.78147 | 143.13978 | 139 ft | 9 kts | 222° |
| 2026-04-17 16:30 | 51.78111 | 143.13959 | 139 ft | 8 kts | 188° |
| 2026-04-17 16:30 | 51.78076 | 143.13929 | 139 ft | 2 kts | 169° |
| 2026-04-17 16:30 | 51.78073 | 143.13946 | 139 ft | 2 kts | 82° |
| 2026-04-17 16:31 | 51.78090 | 143.13963 | 139 ft | 5 kts | 22° |
| 2026-04-17 16:31 | 51.78142 | 143.13996 | 139 ft | 11 kts | 21° |
| 2026-04-17 16:31 | 51.78230 | 143.14054 | 139 ft | 17 kts | 25° |
| 2026-04-17 16:31 | 51.78348 | 143.14141 | 141 ft | 21 kts | 23° |
| 2026-04-17 16:32 | 51.78491 | 143.14249 | 141 ft | 25 kts | 25° |
| 2026-04-17 16:32 | 51.78636 | 143.14353 | 142 ft | 21 kts | 25° |
| 2026-04-17 16:32 | 51.78779 | 143.14460 | 142 ft | 17 kts | 24° |
| 2026-04-17 16:32 | 51.78869 | 143.14500 | 140 ft | 10 kts | 336° |
| 2026-04-17 16:33 | 51.78913 | 143.14397 | 139 ft | 9 kts | 297° |
| 2026-04-17 16:33 | 51.78909 | 143.14310 | 138 ft | 7 kts | 213° |
| 2026-04-17 16:33 | 51.78852 | 143.14261 | 138 ft | 6 kts | 207° |
| 2026-04-17 16:33 | 51.78837 | 143.14207 | 138 ft | 2 kts | 283° |
| 2026-04-17 16:34 | 51.78842 | 143.14187 | 138 ft | 0 kts | 295° |